Time;durP1;ratioP1;P1;durP2;ratioP2;P2;SDS_P1;SDS_P2;PMS_P1;PMS_P2;Temp;Humidity;BMP_temperature;BMP_pressure;BME280_temperature;BME280_humidity;BME280_pressure;Samples;Min_cycle;Max_cycle;Signal;HPM_P1;HPM_P2
2023/09/30 00:00:00;;;;;;;2.43;2.10;;;21.00;68.90;;;;;;5040884;28;20847;-50
2023/09/30 00:02:39;;;;;;;1.80;1.50;;;21.00;68.90;;;;;;5038173;28;20988;-50
2023/09/30 00:05:08;;;;;;;2.40;1.47;;;21.00;68.90;;;;;;5036547;28;20953;-52
2023/09/30 00:07:37;;;;;;;3.57;1.50;;;21.00;69.00;;;;;;5041988;28;20830;-49
2023/09/30 00:10:06;;;;;;;3.50;1.87;;;21.00;68.90;;;;;;5038085;28;20436;-52
2023/09/30 00:12:34;;;;;;;2.77;1.77;;;21.00;68.90;;;;;;5036863;28;20477;-50
2023/09/30 00:15:04;;;;;;;1.77;1.40;;;21.00;68.90;;;;;;5037459;28;20457;-50
2023/09/30 00:17:32;;;;;;;2.10;1.40;;;21.00;68.90;;;;;;5016548;28;20475;-50
2023/09/30 00:20:03;;;;;;;3.50;1.70;;;21.00;68.90;;;;;;5037699;28;20462;-50
2023/09/30 00:22:32;;;;;;;2.97;1.60;;;21.00;68.80;;;;;;5042047;28;20906;-50
2023/09/30 00:25:00;;;;;;;1.87;1.57;;;20.90;68.70;;;;;;5035742;28;20423;-50
2023/09/30 00:27:29;;;;;;;2.43;1.60;;;20.90;68.70;;;;;;5034446;28;21060;-50
2023/09/30 00:29:57;;;;;;;2.87;1.80;;;20.90;68.70;;;;;;5032730;28;20459;-51
2023/09/30 00:32:25;;;;;;;2.50;1.80;;;20.90;68.60;;;;;;5040107;28;20460;-49
2023/09/30 00:34:53;;;;;;;1.77;1.67;;;21.00;68.70;;;;;;5035735;28;20466;-51
2023/09/30 00:37:23;;;;;;;2.27;1.97;;;20.90;68.70;;;;;;5036427;28;20590;-50
2023/09/30 00:39:51;;;;;;;2.80;1.80;;;20.90;70.00;;;;;;5042461;28;20537;-52
2023/09/30 00:42:20;;;;;;;1.73;1.30;;;20.90;68.50;;;;;;5036162;28;20575;-50
2023/09/30 00:44:48;;;;;;;3.23;1.93;;;20.90;68.70;;;;;;5043114;28;20535;-50
2023/09/30 00:47:17;;;;;;;1.90;1.30;;;20.90;68.80;;;;;;5034975;28;20452;-50
2023/09/30 00:49:45;;;;;;;1.73;1.30;;;20.90;68.70;;;;;;5030570;28;20538;-50
2023/09/30 00:52:13;;;;;;;2.53;1.60;;;20.90;68.80;;;;;;5035263;28;21015;-50
2023/09/30 00:54:43;;;;;;;2.33;1.50;;;20.90;68.80;;;;;;5040311;28;20454;-51
2023/09/30 00:57:13;;;;;;;1.97;1.70;;;20.90;68.80;;;;;;5035522;28;20475;-51
2023/09/30 00:59:41;;;;;;;2.53;1.70;;;20.90;68.70;;;;;;5026747;28;20475;-50
2023/09/30 01:02:10;;;;;;;2.20;2.00;;;20.90;68.70;;;;;;5035856;28;20459;-51
2023/09/30 01:04:40;;;;;;;2.67;1.70;;;20.90;68.60;;;;;;5037292;28;20478;-50
2023/09/30 01:07:09;;;;;;;2.80;1.50;;;20.90;68.50;;;;;;5031423;28;21000;-50
2023/09/30 01:09:38;;;;;;;2.40;1.80;;;20.90;68.70;;;;;;5026580;28;20937;-50
2023/09/30 01:12:08;;;;;;;1.87;1.60;;;20.90;68.70;;;;;;5040264;28;20481;-49
2023/09/30 01:14:38;;;;;;;1.70;1.27;;;20.90;68.60;;;;;;5039091;28;20960;-52
2023/09/30 01:17:09;;;;;;;3.30;1.60;;;20.90;68.70;;;;;;5031502;28;20474;-51
2023/09/30 01:19:37;;;;;;;2.50;1.33;;;20.90;68.60;;;;;;5025787;28;20475;-50
2023/09/30 01:22:09;;;;;;;1.63;1.10;;;20.90;68.60;;;;;;5037517;28;20451;-50
2023/09/30 01:24:41;;;;;;;2.80;1.60;;;20.80;68.40;;;;;;5042016;28;20455;-50
2023/09/30 01:27:10;;;;;;;2.60;2.20;;;20.90;68.50;;;;;;5028509;28;20460;-50
2023/09/30 01:29:38;;;;;;;1.97;1.63;;;20.80;68.50;;;;;;5034678;28;20854;-51
2023/09/30 01:32:09;;;;;;;3.07;1.73;;;20.80;68.60;;;;;;5025279;28;20462;-51
2023/09/30 01:34:37;;;;;;;1.60;1.23;;;20.80;68.50;;;;;;5039983;28;20502;-50
2023/09/30 01:37:07;;;;;;;2.03;1.40;;;20.80;68.60;;;;;;5034692;28;20452;-50
2023/09/30 01:39:35;;;;;;;2.40;1.50;;;20.80;69.90;;;;;;5041178;28;20459;-50
2023/09/30 01:42:03;;;;;;;2.27;1.90;;;20.80;68.60;;;;;;5043418;28;20550;-50
2023/09/30 01:44:34;;;;;;;2.60;2.00;;;20.80;68.60;;;;;;5043652;28;20467;-51
2023/09/30 01:47:02;;;;;;;2.23;1.40;;;20.80;68.60;;;;;;5028473;28;20473;-51
2023/09/30 01:49:30;;;;;;;3.20;1.73;;;20.80;68.60;;;;;;5037134;28;20424;-51
2023/09/30 01:51:58;;;;;;;3.13;1.90;;;20.80;68.60;;;;;;5039805;28;20988;-52
2023/09/30 01:54:28;;;;;;;2.17;1.60;;;20.80;68.50;;;;;;5044646;28;20463;-51
2023/09/30 01:56:58;;;;;;;2.80;1.90;;;20.80;68.60;;;;;;5040239;28;20481;-52
2023/09/30 01:59:27;;;;;;;1.60;1.30;;;20.80;68.40;;;;;;5039480;28;20468;-49
2023/09/30 02:01:56;;;;;;;2.20;1.77;;;20.80;68.50;;;;;;5035942;28;20492;-50
2023/09/30 02:04:25;;;;;;;1.70;1.40;;;20.70;68.30;;;;;;5042264;28;20834;-50
2023/09/30 02:06:53;;;;;;;2.20;1.73;;;20.80;68.40;;;;;;5019458;28;20563;-50
2023/09/30 02:09:21;;;;;;;2.57;1.50;;;20.70;68.40;;;;;;5041607;28;20439;-50
2023/09/30 02:11:51;;;;;;;2.70;2.07;;;20.80;68.50;;;;;;5040878;28;20459;-50
2023/09/30 02:14:20;;;;;;;2.77;1.50;;;20.70;68.30;;;;;;5025878;28;20458;-49
2023/09/30 02:16:48;;;;;;;2.73;1.87;;;20.70;68.30;;;;;;5024302;28;20509;-50
2023/09/30 02:19:16;;;;;;;2.20;1.77;;;20.70;68.40;;;;;;5037189;28;20557;-50
2023/09/30 02:21:45;;;;;;;2.87;1.80;;;20.70;68.40;;;;;;5037010;28;20462;-49
2023/09/30 02:24:14;;;;;;;2.40;1.53;;;20.70;68.40;;;;;;5037120;28;20473;-50
2023/09/30 02:26:43;;;;;;;2.83;1.67;;;20.70;68.30;;;;;;5042985;28;20466;-50
2023/09/30 02:29:12;;;;;;;2.17;1.63;;;20.70;68.40;;;;;;5023507;28;20447;-51
2023/09/30 02:31:41;;;;;;;2.73;1.67;;;20.70;68.30;;;;;;5038403;28;20461;-50
2023/09/30 02:34:09;;;;;;;2.97;2.00;;;20.70;68.20;;;;;;5039761;28;20459;-52
2023/09/30 02:36:39;;;;;;;2.67;1.60;;;20.70;68.20;;;;;;5021658;28;20470;-50
2023/09/30 02:39:08;;;;;;;2.63;1.57;;;20.70;68.20;;;;;;5042189;28;20480;-52
2023/09/30 02:41:37;;;;;;;3.50;1.90;;;20.70;68.20;;;;;;5040257;28;20477;-51
2023/09/30 02:44:06;;;;;;;3.10;1.80;;;20.70;68.20;;;;;;5021103;28;20889;-51
2023/09/30 02:46:36;;;;;;;2.37;1.60;;;20.70;68.10;;;;;;5040521;28;20455;-51
2023/09/30 02:49:04;;;;;;;3.23;1.60;;;20.70;68.10;;;;;;5042710;28;20427;-50
2023/09/30 02:51:32;;;;;;;1.53;1.43;;;20.70;69.30;;;;;;5035947;28;20482;-50
2023/09/30 02:54:00;;;;;;;2.13;1.87;;;20.70;68.10;;;;;;5044625;28;20489;-50
2023/09/30 02:56:30;;;;;;;2.23;1.60;;;20.70;68.00;;;;;;5040704;28;20471;-50
2023/09/30 02:58:59;;;;;;;2.60;1.33;;;20.60;68.00;;;;;;5037696;28;20482;-50
2023/09/30 03:01:28;;;;;;;2.30;1.97;;;20.60;67.90;;;;;;5039950;28;21223;-50
2023/09/30 03:03:58;;;;;;;2.53;2.10;;;20.60;67.90;;;;;;5037580;28;20448;-50
2023/09/30 03:06:26;;;;;;;2.40;1.63;;;20.60;67.80;;;;;;5038027;28;20447;-50
2023/09/30 03:08:55;;;;;;;2.93;1.67;;;20.60;67.90;;;;;;5043573;28;21006;-52
2023/09/30 03:11:23;;;;;;;2.00;1.77;;;20.60;67.80;;;;;;5037154;28;20466;-50
2023/09/30 03:13:51;;;;;;;2.77;2.23;;;20.60;67.80;;;;;;5036958;28;20955;-50
2023/09/30 03:16:20;;;;;;;1.60;1.50;;;20.60;67.80;;;;;;5043955;28;20451;-50
2023/09/30 03:18:49;;;;;;;2.10;1.87;;;20.60;67.90;;;;;;5042694;28;20466;-50
2023/09/30 03:21:19;;;;;;;3.30;2.10;;;20.60;67.90;;;;;;5035321;28;20500;-50
2023/09/30 03:23:48;;;;;;;2.80;2.20;;;20.60;67.90;;;;;;5043039;28;20463;-50
2023/09/30 03:26:16;;;;;;;2.30;1.70;;;20.60;67.90;;;;;;5030439;28;20477;-52
2023/09/30 03:28:46;;;;;;;2.93;1.77;;;20.60;68.00;;;;;;5039306;28;20419;-51
2023/09/30 03:31:14;;;;;;;2.83;1.90;;;20.60;68.00;;;;;;5040057;28;21005;-52
2023/09/30 03:33:42;;;;;;;2.60;1.97;;;20.60;67.80;;;;;;5037718;28;20459;-50
2023/09/30 03:36:11;;;;;;;2.87;2.30;;;20.60;67.80;;;;;;5044285;28;20469;-50
2023/09/30 03:38:41;;;;;;;2.77;2.13;;;20.60;68.00;;;;;;5044557;28;20937;-49
2023/09/30 03:41:12;;;;;;;3.10;1.80;;;20.50;67.70;;;;;;5037178;28;20547;-50
2023/09/30 03:43:41;;;;;;;2.90;1.60;;;20.50;67.80;;;;;;5039572;28;21005;-50
2023/09/30 03:46:09;;;;;;;2.70;1.73;;;20.60;67.80;;;;;;5039708;28;20835;-50
2023/09/30 03:48:39;;;;;;;3.20;1.60;;;20.50;67.80;;;;;;5035624;28;20926;-49
2023/09/30 03:51:13;;;;;;;3.00;2.07;;;20.50;67.80;;;;;;5042623;28;20467;-51
2023/09/30 03:53:44;;;;;;;2.90;2.10;;;20.50;67.80;;;;;;5035653;28;20913;-50
2023/09/30 03:56:13;;;;;;;2.27;1.93;;;20.50;67.70;;;;;;5036502;28;20466;-51
2023/09/30 03:58:41;;;;;;;2.17;1.97;;;20.50;67.70;;;;;;5047078;28;20451;-50
2023/09/30 04:01:12;;;;;;;2.60;1.93;;;20.50;67.70;;;;;;5042511;28;20467;-50
2023/09/30 04:03:43;;;;;;;2.97;1.90;;;20.50;67.70;;;;;;5047748;28;20471;-51
2023/09/30 04:06:12;;;;;;;2.60;1.70;;;20.50;67.80;;;;;;5045124;28;20455;-50
2023/09/30 04:08:40;;;;;;;3.57;2.03;;;20.50;67.80;;;;;;5035135;28;21022;-50
2023/09/30 04:11:10;;;;;;;2.97;2.47;;;20.50;67.70;;;;;;5041542;28;21656;-49
2023/09/30 04:13:37;;;;;;;2.50;2.20;;;20.40;67.50;;;;;;5047626;28;21026;-50
2023/09/30 04:16:05;;;;;;;3.27;2.60;;;20.40;67.60;;;;;;5040048;28;20448;-50
2023/09/30 04:18:33;;;;;;;2.23;1.77;;;20.40;67.70;;;;;;5039748;28;20488;-50
2023/09/30 04:21:04;;;;;;;2.23;2.03;;;20.40;67.90;;;;;;5037646;28;20471;-50
2023/09/30 04:23:32;;;;;;;2.03;1.77;;;20.40;67.80;;;;;;5034736;28;20451;-50
2023/09/30 04:26:00;;;;;;;2.87;2.23;;;20.40;67.90;;;;;;5035951;28;20858;-50
2023/09/30 04:28:30;;;;;;;4.97;2.97;;;20.40;67.90;;;;;;5035280;28;20494;-50
2023/09/30 04:30:59;;;;;;;2.73;2.10;;;20.40;68.00;;;;;;5033557;28;20456;-51
2023/09/30 04:33:27;;;;;;;2.47;1.80;;;20.40;67.80;;;;;;5020515;28;20459;-50
2023/09/30 04:35:57;;;;;;;1.83;1.47;;;20.40;67.90;;;;;;5022096;28;21110;-50
2023/09/30 04:38:25;;;;;;;3.33;2.30;;;20.40;68.00;;;;;;5043442;28;20447;-49
2023/09/30 04:40:54;;;;;;;3.10;1.37;;;20.40;67.90;;;;;;5042512;28;20471;-50
2023/09/30 04:43:22;;;;;;;3.73;3.07;;;20.40;67.90;;;;;;5038247;28;20991;-52
2023/09/30 04:45:53;;;;;;;2.70;1.97;;;20.40;67.80;;;;;;5040642;28;20783;-51
2023/09/30 04:48:22;;;;;;;2.87;2.40;;;20.30;67.80;;;;;;5044068;28;20465;-51
2023/09/30 04:50:51;;;;;;;2.00;1.80;;;20.30;67.80;;;;;;5032181;28;20448;-50
2023/09/30 04:53:19;;;;;;;3.00;2.30;;;20.30;67.80;;;;;;5039733;28;20443;-50
2023/09/30 04:55:49;;;;;;;3.23;2.33;;;20.30;67.60;;;;;;5037531;28;20428;-51
2023/09/30 04:58:17;;;;;;;2.23;1.80;;;20.30;67.70;;;;;;5038991;28;20818;-51
2023/09/30 05:00:45;;;;;;;3.23;2.27;;;20.30;67.80;;;;;;5033510;28;20484;-49
2023/09/30 05:03:15;;;;;;;3.37;2.00;;;20.30;67.80;;;;;;5040727;28;20466;-52
2023/09/30 05:05:43;;;;;;;2.83;2.53;;;20.30;67.70;;;;;;5037369;28;20457;-50
2023/09/30 05:08:13;;;;;;;2.53;2.10;;;20.30;67.60;;;;;;5038123;28;20435;-50
2023/09/30 05:10:42;;;;;;;2.83;2.07;;;20.30;67.30;;;;;;5036602;28;20419;-51
2023/09/30 05:13:10;;;;;;;2.40;2.10;;;20.30;67.60;;;;;;5034353;28;20447;-49
2023/09/30 05:15:38;;;;;;;3.13;2.27;;;20.30;67.60;;;;;;5038493;28;20443;-52
2023/09/30 05:18:08;;;;;;;3.40;3.10;;;20.20;67.60;;;;;;5036655;28;20455;-50
2023/09/30 05:20:38;;;;;;;2.50;2.20;;;20.20;67.70;;;;;;5036638;28;21029;-50
2023/09/30 05:23:07;;;;;;;3.13;2.20;;;20.20;67.60;;;;;;5035490;28;20466;-52
2023/09/30 05:25:36;;;;;;;1.90;1.60;;;20.20;67.40;;;;;;5040601;28;20493;-50
2023/09/30 05:28:05;;;;;;;2.10;1.90;;;20.20;67.50;;;;;;5032616;28;20468;-50
2023/09/30 05:30:34;;;;;;;2.57;1.97;;;20.20;67.70;;;;;;5034823;28;20464;-50
2023/09/30 05:33:03;;;;;;;3.00;1.97;;;20.20;67.60;;;;;;5035663;28;20464;-51
2023/09/30 05:35:32;;;;;;;2.90;2.17;;;20.20;67.60;;;;;;5034775;28;20462;-51
2023/09/30 05:38:03;;;;;;;3.40;1.77;;;20.20;67.70;;;;;;5027342;28;21046;-51
2023/09/30 05:40:32;;;;;;;3.43;2.10;;;20.20;67.70;;;;;;5045848;28;20478;-51
2023/09/30 05:43:00;;;;;;;1.70;1.60;;;20.20;67.60;;;;;;5036609;28;21152;-50
2023/09/30 05:45:34;;;;;;;2.83;2.30;;;20.20;67.60;;;;;;5040455;28;20443;-52
2023/09/30 05:48:04;;;;;;;2.30;1.93;;;20.20;67.60;;;;;;5023477;28;20526;-50
2023/09/30 05:50:34;;;;;;;2.03;1.73;;;20.20;67.50;;;;;;5022685;28;20444;-50
2023/09/30 05:53:04;;;;;;;2.30;2.00;;;20.20;67.50;;;;;;5036207;28;20503;-51
2023/09/30 05:55:33;;;;;;;3.00;2.47;;;20.20;67.60;;;;;;5037548;28;20439;-51
2023/09/30 05:58:01;;;;;;;2.57;2.20;;;20.20;67.40;;;;;;5037534;28;20479;-50
2023/09/30 06:00:30;;;;;;;2.60;1.90;;;20.10;67.50;;;;;;5041654;28;20456;-50
2023/09/30 06:03:00;;;;;;;2.83;2.40;;;20.20;67.50;;;;;;5039466;28;20471;-50
2023/09/30 06:05:30;;;;;;;2.97;2.40;;;20.10;67.40;;;;;;5035900;28;20453;-52
2023/09/30 06:08:02;;;;;;;3.00;2.07;;;20.10;67.30;;;;;;5038095;28;20984;-50
2023/09/30 06:10:32;;;;;;;2.20;2.00;;;20.10;67.30;;;;;;5039546;28;20434;-51
2023/09/30 06:13:00;;;;;;;2.60;1.90;;;20.10;67.30;;;;;;5040106;28;20477;-51
2023/09/30 06:15:28;;;;;;;2.10;1.80;;;20.10;67.50;;;;;;5039489;28;20450;-50
2023/09/30 06:17:57;;;;;;;2.50;2.13;;;20.10;67.40;;;;;;5039992;28;20472;-51
2023/09/30 06:20:26;;;;;;;2.70;1.93;;;20.10;67.40;;;;;;5035935;28;21077;-51
2023/09/30 06:22:56;;;;;;;2.47;2.10;;;20.10;67.40;;;;;;5038233;28;20866;-49
2023/09/30 06:25:25;;;;;;;2.43;2.23;;;20.10;67.30;;;;;;5039760;28;20953;-50
2023/09/30 06:27:55;;;;;;;2.50;1.80;;;20.10;67.40;;;;;;5039069;28;20452;-50
2023/09/30 06:30:29;;;;;;;3.50;2.30;;;20.10;67.40;;;;;;5035386;28;20463;-50
2023/09/30 06:33:00;;;;;;;3.13;2.70;;;20.10;67.50;;;;;;5039501;28;20501;-51
2023/09/30 06:35:30;;;;;;;2.30;2.00;;;20.10;67.30;;;;;;5040281;28;20817;-51
2023/09/30 06:37:58;;;;;;;2.70;2.47;;;20.10;67.30;;;;;;5036346;28;20476;-50
2023/09/30 06:40:26;;;;;;;4.37;2.70;;;20.00;67.40;;;;;;5040199;28;20495;-50
2023/09/30 06:42:57;;;;;;;2.67;1.90;;;20.10;67.40;;;;;;5036068;28;21011;-50
2023/09/30 06:45:26;;;;;;;2.07;1.80;;;20.10;67.50;;;;;;5037729;28;20455;-49
2023/09/30 06:47:55;;;;;;;3.00;2.70;;;20.00;67.40;;;;;;5040420;28;20470;-51
2023/09/30 06:50:23;;;;;;;4.13;3.33;;;20.00;67.30;;;;;;5038798;28;20445;-52
2023/09/30 06:52:52;;;;;;;2.77;2.50;;;20.00;67.30;;;;;;5037426;28;20596;-50
2023/09/30 06:55:20;;;;;;;2.37;2.17;;;20.00;67.30;;;;;;5039742;28;20423;-50
2023/09/30 06:57:48;;;;;;;2.63;1.90;;;20.00;67.50;;;;;;5040654;28;20471;-50
2023/09/30 07:00:18;;;;;;;3.57;2.70;;;20.00;67.50;;;;;;5038180;28;20458;-50
2023/09/30 07:02:46;;;;;;;2.47;2.13;;;20.00;68.80;;;;;;5037414;28;20472;-50
2023/09/30 07:05:15;;;;;;;2.17;1.70;;;20.00;67.50;;;;;;5036920;28;21194;-51
2023/09/30 07:07:44;;;;;;;2.77;2.20;;;20.00;67.60;;;;;;5036737;28;20474;-50
2023/09/30 07:10:12;;;;;;;3.97;2.80;;;20.00;67.60;;;;;;5042676;28;20430;-51
2023/09/30 07:12:40;;;;;;;1.73;1.53;;;20.00;67.60;;;;;;5042478;28;20467;-50
2023/09/30 07:15:09;;;;;;;2.50;2.30;;;20.00;67.60;;;;;;5028969;28;20962;-50
2023/09/30 07:17:39;;;;;;;2.77;2.13;;;20.00;67.60;;;;;;5042650;28;20864;-52
2023/09/30 07:20:12;;;;;;;2.57;2.10;;;20.00;67.60;;;;;;5040049;28;20453;-52
2023/09/30 07:22:41;;;;;;;2.50;2.30;;;20.00;67.70;;;;;;5042196;28;20467;-51
2023/09/30 07:25:14;;;;;;;2.33;2.03;;;20.00;67.60;;;;;;5045326;28;20435;-52
2023/09/30 07:27:42;;;;;;;2.13;1.93;;;20.00;67.70;;;;;;5042699;28;20483;-51
2023/09/30 07:30:12;;;;;;;2.27;2.00;;;20.00;67.60;;;;;;5042784;28;21464;-51
2023/09/30 07:32:42;;;;;;;2.80;1.90;;;20.00;67.70;;;;;;5042654;28;20477;-51
2023/09/30 07:35:11;;;;;;;3.03;2.37;;;20.00;67.60;;;;;;5045593;28;20516;-51
2023/09/30 07:37:40;;;;;;;1.87;1.60;;;20.00;67.60;;;;;;5042292;28;20659;-50
2023/09/30 07:40:10;;;;;;;3.70;2.87;;;20.00;67.60;;;;;;5045532;28;20435;-49
2023/09/30 07:42:38;;;;;;;3.43;1.90;;;20.00;67.60;;;;;;5036170;28;20471;-52
2023/09/30 07:45:08;;;;;;;3.80;1.77;;;20.00;67.70;;;;;;5042681;28;20487;-51
2023/09/30 07:47:36;;;;;;;2.20;1.50;;;20.00;67.80;;;;;;5042401;28;20501;-50
2023/09/30 07:50:09;;;;;;;2.40;1.60;;;19.90;67.70;;;;;;5040880;28;20476;-51
2023/09/30 07:52:39;;;;;;;1.80;1.60;;;20.00;67.80;;;;;;5040178;28;20566;-50
2023/09/30 07:55:09;;;;;;;2.03;1.80;;;19.90;67.70;;;;;;5045761;28;20817;-50
2023/09/30 07:57:39;;;;;;;2.93;1.47;;;19.90;67.70;;;;;;5039514;28;20479;-50
2023/09/30 08:00:09;;;;;;;1.90;1.30;;;19.90;67.70;;;;;;5035721;28;20510;-50
2023/09/30 08:02:39;;;;;;;2.10;1.43;;;19.90;67.70;;;;;;5041181;28;21024;-50
2023/09/30 08:05:10;;;;;;;3.97;1.60;;;19.90;67.80;;;;;;5036369;28;20571;-52
2023/09/30 08:07:38;;;;;;;2.00;1.73;;;19.90;67.80;;;;;;5041543;28;20481;-49
2023/09/30 08:10:12;;;;;;;2.87;1.87;;;19.90;67.80;;;;;;5046556;28;20450;-50
2023/09/30 08:12:41;;;;;;;1.93;1.73;;;19.90;67.80;;;;;;5045872;28;20960;-50
2023/09/30 08:15:12;;;;;;;2.30;1.90;;;19.90;67.80;;;;;;5042444;28;20960;-50
2023/09/30 08:17:41;;;;;;;2.57;1.90;;;19.90;67.70;;;;;;5045019;28;20485;-51
2023/09/30 08:20:11;;;;;;;2.50;1.70;;;19.90;67.70;;;;;;5036470;28;20435;-50
2023/09/30 08:22:40;;;;;;;2.10;1.70;;;19.90;67.60;;;;;;5035924;28;20499;-50
2023/09/30 08:25:10;;;;;;;2.40;1.90;;;19.90;67.60;;;;;;5042112;28;20444;-52
2023/09/30 08:27:39;;;;;;;2.00;1.70;;;19.90;67.50;;;;;;5043887;28;20558;-49
2023/09/30 08:30:10;;;;;;;2.03;1.50;;;19.90;67.70;;;;;;5037635;28;20447;-50
2023/09/30 08:32:38;;;;;;;2.47;1.80;;;19.90;67.70;;;;;;5034733;28;20497;-49
2023/09/30 08:35:09;;;;;;;1.90;1.70;;;19.90;67.60;;;;;;5039730;28;20677;-52
2023/09/30 08:37:39;;;;;;;1.60;1.50;;;19.90;67.60;;;;;;5032433;28;20471;-50
2023/09/30 08:40:09;;;;;;;1.73;1.47;;;19.90;68.90;;;;;;5039895;28;20444;-50
2023/09/30 08:42:39;;;;;;;1.57;1.30;;;19.90;67.70;;;;;;5032876;28;20475;-50
2023/09/30 08:45:14;;;;;;;2.60;2.00;;;19.90;67.70;;;;;;5024414;28;20443;-50
2023/09/30 08:47:42;;;;;;;2.40;1.87;;;19.90;67.80;;;;;;5038339;28;20463;-50
2023/09/30 08:50:12;;;;;;;2.33;1.77;;;19.90;67.80;;;;;;5033285;28;20453;-51
2023/09/30 08:52:43;;;;;;;1.33;1.10;;;19.90;67.70;;;;;;5038079;28;20988;-50
2023/09/30 08:55:13;;;;;;;1.70;1.50;;;19.90;67.60;;;;;;5032869;28;20457;-52
2023/09/30 08:57:42;;;;;;;2.80;1.90;;;19.90;67.70;;;;;;5033696;28;20467;-50
2023/09/30 09:00:12;;;;;;;1.67;1.57;;;19.90;67.80;;;;;;5035746;28;20451;-49
2023/09/30 09:02:42;;;;;;;2.57;1.90;;;19.90;67.70;;;;;;5028348;28;20467;-50
2023/09/30 09:05:11;;;;;;;2.80;1.77;;;19.90;67.50;;;;;;5034773;28;20415;-51
2023/09/30 09:07:42;;;;;;;2.43;1.77;;;19.90;67.60;;;;;;5038914;28;20506;-51
2023/09/30 09:10:13;;;;;;;2.20;2.00;;;19.90;67.70;;;;;;5034143;28;20448;-50
2023/09/30 09:12:42;;;;;;;2.20;2.00;;;19.90;67.70;;;;;;5029715;28;20462;-50
2023/09/30 09:15:22;;;;;;;2.03;1.50;;;19.90;67.50;;;;;;5033646;28;21036;-50
2023/09/30 09:17:52;;;;;;;2.03;1.80;;;19.90;67.70;;;;;;5039520;28;20565;-51
2023/09/30 09:20:21;;;;;;;3.03;1.80;;;19.90;67.80;;;;;;5035958;28;20866;-50
2023/09/30 09:22:53;;;;;;;2.40;1.90;;;19.80;67.60;;;;;;5035058;28;20483;-51
2023/09/30 09:25:23;;;;;;;2.37;1.30;;;19.90;67.80;;;;;;5036990;28;20542;-51
2023/09/30 09:27:51;;;;;;;2.07;1.47;;;19.80;67.50;;;;;;5035353;28;20499;-50
2023/09/30 09:30:22;;;;;;;2.43;1.60;;;19.80;67.30;;;;;;5037657;28;20925;-49
2023/09/30 09:33:04;;;;;;;2.10;1.77;;;19.80;67.40;;;;;;5040303;28;20554;-50
2023/09/30 09:35:34;;;;;;;1.93;1.43;;;19.80;67.50;;;;;;5036815;28;20471;-49
2023/09/30 09:38:06;;;;;;;1.97;1.70;;;19.90;67.70;;;;;;5033222;28;20498;-50
2023/09/30 09:40:36;;;;;;;7.03;3.10;;;19.80;67.50;;;;;;5037404;28;20446;-50
2023/09/30 09:43:05;;;;;;;4.70;2.57;;;19.80;64.20;;;;;;5033838;28;20479;-49
2023/09/30 09:45:36;;;;;;;2.90;2.47;;;19.70;65.00;;;;;;5038667;28;20447;-52
2023/09/30 09:48:06;;;;;;;4.70;2.10;;;19.70;65.40;;;;;;5039033;28;20987;-49
2023/09/30 09:50:37;;;;;;;5.13;2.10;;;19.70;65.60;;;;;;5016648;28;20998;-50
2023/09/30 09:53:08;;;;;;;3.13;1.90;;;19.80;66.00;;;;;;5031840;28;20560;-50
2023/09/30 09:55:38;;;;;;;2.80;1.80;;;19.80;66.30;;;;;;5028679;28;20483;-50
2023/09/30 09:58:09;;;;;;;2.40;1.70;;;19.80;66.30;;;;;;5038673;28;20582;-50
2023/09/30 10:00:38;;;;;;;3.40;1.73;;;19.80;66.30;;;;;;5028191;28;20455;-50
2023/09/30 10:03:07;;;;;;;4.17;2.10;;;19.80;66.30;;;;;;5015166;28;21021;-53
2023/09/30 10:05:35;;;;;;;2.40;1.87;;;19.90;66.40;;;;;;5015732;28;20818;-50
2023/09/30 10:08:10;;;;;;;3.37;2.13;;;19.90;66.20;;;;;;5036021;28;20470;-50
2023/09/30 10:10:39;;;;;;;4.07;2.40;;;19.90;67.50;;;;;;5032165;28;20439;-49
2023/09/30 10:13:08;;;;;;;2.37;2.00;;;19.90;66.10;;;;;;5035061;28;20456;-49
2023/09/30 10:15:39;;;;;;;2.20;1.60;;;19.90;66.10;;;;;;5037572;28;20450;-49
2023/09/30 10:18:09;;;;;;;3.87;1.83;;;19.90;66.10;;;;;;5033162;28;20961;-50
2023/09/30 10:20:44;;;;;;;2.70;1.97;;;19.90;65.70;;;;;;5033975;28;20959;-50
2023/09/30 10:23:22;;;;;;;4.70;1.60;;;20.00;66.00;;;;;;5032147;28;20475;-50
2023/09/30 10:25:54;;;;;;;2.17;1.40;;;20.00;66.00;;;;;;5027478;28;20475;-51
2023/09/30 10:28:34;;;;;;;2.30;1.43;;;20.00;66.10;;;;;;5029536;28;20525;-52
2023/09/30 10:31:10;;;;;;;2.03;1.70;;;20.00;66.10;;;;;;5033980;28;20443;-52
2023/09/30 10:33:53;;;;;;;3.37;1.50;;;20.00;66.00;;;;;;5016344;28;20538;-50
2023/09/30 10:36:28;;;;;;;2.50;1.90;;;19.90;66.10;;;;;;5014018;28;20501;-50
2023/09/30 10:38:59;;;;;;;1.87;1.70;;;19.90;66.20;;;;;;5035081;28;20428;-50
2023/09/30 10:41:50;;;;;;;2.80;1.70;;;19.90;66.10;;;;;;5032471;28;20478;-49
2023/09/30 10:44:35;;;;;;;2.90;1.40;;;19.90;66.30;;;;;;5035775;28;21026;-50
2023/09/30 10:47:37;;;;;;;2.70;1.60;;;19.90;66.10;;;;;;5036341;28;20478;-52
2023/09/30 10:50:43;;;;;;;2.07;1.57;;;19.90;66.20;;;;;;5039664;28;20442;-52
2023/09/30 10:53:12;;;;;;;5.73;2.00;;;19.90;66.20;;;;;;5025813;28;20471;-51
2023/09/30 10:55:42;;;;;;;6.30;2.90;;;19.90;65.90;;;;;;5042530;28;20457;-48
2023/09/30 10:58:10;;;;;;;6.65;2.92;;;19.90;63.70;;;;;;5038580;28;20443;-50
2023/09/30 11:00:38;;;;;;;3.33;1.70;;;20.00;63.30;;;;;;5038258;28;20206;-49
2023/09/30 11:03:07;;;;;;;2.70;1.70;;;20.00;63.80;;;;;;5037175;28;20476;-56
2023/09/30 11:05:35;;;;;;;2.87;1.80;;;20.00;64.40;;;;;;5038299;28;20468;-49
2023/09/30 11:08:24;;;;;;;5.67;2.43;;;20.00;64.80;;;;;;5038183;28;20466;-49
2023/09/30 11:10:54;;;;;;;2.93;2.03;;;19.90;64.70;;;;;;5039880;28;20450;-49
2023/09/30 11:13:22;;;;;;;2.60;1.77;;;19.90;64.90;;;;;;5038636;28;20465;-50
2023/09/30 11:16:01;;;;;;;2.97;1.70;;;19.90;65.60;;;;;;5040708;28;20443;-49
2023/09/30 11:18:31;;;;;;;4.50;1.83;;;19.90;65.10;;;;;;5043793;28;20530;-49
2023/09/30 11:21:07;;;;;;;4.53;1.73;;;19.90;65.00;;;;;;5041123;28;20451;-50
2023/09/30 11:23:36;;;;;;;4.63;1.90;;;19.90;65.20;;;;;;5045676;28;20471;-49
2023/09/30 11:26:06;;;;;;;2.40;1.63;;;20.00;65.20;;;;;;5043023;28;20439;-49
2023/09/30 11:28:39;;;;;;;2.07;1.77;;;20.00;65.30;;;;;;5041346;28;20455;-49
2023/09/30 11:31:13;;;;;;;3.13;2.10;;;20.00;65.30;;;;;;5045864;28;20465;-51
2023/09/30 11:33:50;;;;;;;2.93;1.70;;;19.90;65.30;;;;;;5042318;28;20542;-51
2023/09/30 11:36:20;;;;;;;5.27;1.97;;;19.90;65.40;;;;;;5038708;28;20997;-49
2023/09/30 11:38:50;;;;;;;2.60;1.60;;;19.90;65.50;;;;;;5041500;28;20438;-49
2023/09/30 11:41:21;;;;;;;2.60;1.67;;;19.90;65.40;;;;;;5041999;28;20470;-50
2023/09/30 11:44:01;;;;;;;2.30;1.80;;;19.90;65.50;;;;;;5045793;28;20667;-49
2023/09/30 11:46:29;;;;;;;2.23;1.80;;;20.00;65.60;;;;;;5041821;28;20463;-49
2023/09/30 11:49:00;;;;;;;1.77;1.40;;;19.90;65.50;;;;;;5044624;28;20447;-49
2023/09/30 11:51:31;;;;;;;2.60;1.40;;;19.90;65.50;;;;;;5040823;28;20466;-49
2023/09/30 11:54:02;;;;;;;2.03;1.70;;;19.90;65.70;;;;;;5037003;28;20485;-49
2023/09/30 11:56:31;;;;;;;2.13;1.30;;;20.00;65.60;;;;;;5043073;28;20990;-49
2023/09/30 11:58:59;;;;;;;1.87;1.67;;;20.00;65.60;;;;;;5038315;28;20446;-49
2023/09/30 12:01:30;;;;;;;3.77;2.10;;;20.00;65.60;;;;;;5038795;28;20463;-49
2023/09/30 12:03:59;;;;;;;2.63;1.67;;;20.00;65.50;;;;;;5044116;28;20466;-49
2023/09/30 12:06:28;;;;;;;2.13;1.63;;;19.90;65.40;;;;;;5039221;28;20459;-50
2023/09/30 12:08:57;;;;;;;2.93;2.20;;;20.00;65.50;;;;;;5041920;28;20886;-49
2023/09/30 12:11:24;;;;;;;2.57;1.80;;;20.00;65.60;;;;;;5041042;28;20459;-49
2023/09/30 12:13:54;;;;;;;2.40;1.80;;;20.00;65.60;;;;;;5042891;28;20968;-49
2023/09/30 12:16:23;;;;;;;2.30;1.90;;;20.00;65.60;;;;;;5034786;28;20758;-50
2023/09/30 12:18:52;;;;;;;2.60;1.93;;;20.00;65.60;;;;;;5040360;28;20443;-49
2023/09/30 12:21:20;;;;;;;2.87;1.40;;;20.00;65.50;;;;;;5039246;28;20463;-49
2023/09/30 12:23:49;;;;;;;2.60;2.10;;;20.00;65.50;;;;;;5038390;28;20467;-50
2023/09/30 12:26:17;;;;;;;3.90;1.77;;;20.00;65.70;;;;;;5039642;28;20536;-51
2023/09/30 12:28:48;;;;;;;2.47;1.80;;;20.00;65.70;;;;;;5035615;28;20447;-50
2023/09/30 12:31:18;;;;;;;2.40;1.80;;;20.00;65.70;;;;;;5040018;28;20458;-49
2023/09/30 12:33:50;;;;;;;3.87;2.67;;;20.00;65.90;;;;;;5040992;28;20487;-50
2023/09/30 12:36:19;;;;;;;4.47;2.37;;;19.90;65.20;;;;;;5039251;28;20454;-49
2023/09/30 12:38:47;;;;;;;3.10;2.07;;;19.90;64.70;;;;;;5042185;28;20443;-52
2023/09/30 12:41:15;;;;;;;4.03;1.70;;;19.90;65.10;;;;;;5045369;28;20459;-51
2023/09/30 12:43:44;;;;;;;4.80;1.80;;;19.90;65.50;;;;;;5039522;28;20490;-49
2023/09/30 12:46:13;;;;;;;3.83;1.93;;;19.90;65.40;;;;;;5039728;28;20489;-49
2023/09/30 12:48:44;;;;;;;3.00;1.80;;;19.90;65.40;;;;;;5036744;28;20437;-51
2023/09/30 12:51:12;;;;;;;4.27;2.27;;;19.90;65.60;;;;;;5030738;28;20455;-50
2023/09/30 12:53:40;;;;;;;2.90;1.97;;;19.90;65.70;;;;;;5032961;28;20474;-49
2023/09/30 12:56:09;;;;;;;2.87;1.60;;;19.90;65.80;;;;;;5030773;28;20452;-49
2023/09/30 12:58:38;;;;;;;3.40;1.70;;;19.90;65.80;;;;;;5031455;28;20448;-49
2023/09/30 13:01:06;;;;;;;2.20;1.57;;;19.90;65.90;;;;;;5037056;28;20478;-49